createdAt,value
2023-11-24T00:00:11.110Z,83.72
2023-11-24T00:03:16.494Z,84.05
2023-11-24T00:06:18.852Z,83.82
2023-11-24T00:09:22.808Z,83.84
2023-11-24T00:12:26.278Z,83.82
2023-11-24T00:15:28.684Z,84.24
2023-11-24T00:18:31.590Z,84.36
2023-11-24T00:21:37.344Z,84.42
2023-11-24T00:24:39.748Z,85.05
2023-11-24T00:27:42.654Z,85.18
2023-11-24T00:30:44.968Z,85.81
2023-11-24T00:33:48.718Z,86.12
2023-11-24T00:36:51.625Z,86.17
2023-11-24T00:39:54.117Z,86.55
2023-11-24T00:42:56.641Z,87.01
2023-11-24T00:45:58.990Z,87.01
2023-11-24T00:49:01.418Z,86.54
2023-11-24T00:52:03.980Z,86.41
2023-11-24T00:55:06.857Z,86.29
2023-11-24T00:58:09.879Z,86.31
2023-11-24T01:01:13.031Z,86.85
2023-11-24T01:04:17.189Z,86.78
2023-11-24T01:07:19.706Z,86.59
2023-11-24T01:10:22.901Z,86.91
2023-11-24T01:13:26.017Z,87.59
2023-11-24T01:16:28.317Z,88.34
2023-11-24T01:19:30.482Z,88.39
2023-11-24T01:22:32.721Z,88.04
2023-11-24T01:25:35.008Z,87.09
2023-11-24T01:28:37.173Z,86.87
2023-11-24T01:31:40.702Z,86.29
2023-11-24T01:34:43.005Z,86.04
2023-11-24T01:37:45.694Z,85.09
2023-11-24T01:40:48.009Z,84.52
2023-11-24T01:44:01.305Z,84.89
2023-11-24T01:47:04.473Z,84.07
2023-11-24T01:50:08.907Z,83.81
2023-11-24T01:53:11.687Z,84.06
2023-11-24T01:56:14.250Z,84.14
2023-11-24T01:59:16.687Z,84.07
2023-11-24T02:02:22.062Z,84.15
2023-11-24T02:05:25.257Z,83.70
2023-11-24T02:08:29.555Z,83.48
2023-11-24T02:11:31.843Z,83.85
2023-11-24T02:14:34.147Z,84.59
2023-11-24T02:17:37.352Z,85.04
2023-11-24T02:20:40.157Z,83.72
2023-11-24T02:23:43.651Z,82.78
2023-11-24T02:26:46.700Z,82.70
2023-11-24T02:29:52.239Z,81.02
2023-11-24T02:32:54.598Z,80.52
2023-11-24T02:35:57.807Z,80.52
2023-11-24T02:39:00.102Z,79.50
2023-11-24T02:42:02.370Z,79.87
2023-11-24T02:45:04.800Z,79.10
2023-11-24T02:48:07.064Z,79.28
2023-11-24T02:51:10.232Z,79.21
2023-11-24T02:54:12.552Z,82.49
2023-11-24T02:57:15.499Z,83.87
2023-11-24T03:00:19.419Z,84.43
2023-11-24T03:03:21.905Z,87.44
2023-11-24T03:06:24.285Z,87.34
2023-11-24T03:09:27.284Z,89.84
2023-11-24T03:12:29.882Z,91.11
2023-11-24T03:15:32.469Z,91.89
2023-11-24T03:18:35.093Z,91.71
2023-11-24T03:21:37.919Z,90.18
2023-11-24T03:24:40.401Z,89.63
2023-11-24T03:27:42.785Z,90.72
2023-11-24T03:30:45.735Z,90.21
2023-11-24T03:33:48.161Z,92.68
2023-11-24T03:36:50.858Z,90.96
2023-11-24T03:39:54.276Z,90.84
2023-11-24T03:42:56.675Z,90.97
2023-11-24T03:45:59.062Z,90.51
2023-11-24T03:49:01.265Z,91.64
2023-11-24T03:52:04.668Z,93.01
2023-11-24T03:55:08.839Z,94.34
2023-11-24T03:58:11.257Z,96.25
2023-11-24T04:01:16.815Z,94.49
2023-11-24T04:04:19.285Z,93.66
2023-11-24T04:07:21.621Z,94.98
2023-11-24T04:10:24.210Z,94.00
2023-11-24T04:13:27.538Z,94.07
2023-11-24T04:16:30.874Z,95.07
2023-11-24T04:19:34.219Z,95.41
2023-11-24T04:22:38.610Z,94.66
2023-11-24T04:25:44.912Z,93.87
2023-11-24T04:28:47.350Z,93.96
2023-11-24T04:31:49.668Z,93.98
2023-11-24T04:34:52.152Z,94.88
2023-11-24T04:37:54.426Z,93.90
2023-11-24T04:40:56.822Z,94.03
2023-11-24T04:43:59.002Z,96.65
2023-11-24T04:47:01.231Z,96.28
2023-11-24T04:50:03.669Z,95.65
2023-11-24T04:53:06.015Z,95.55
2023-11-24T04:56:08.426Z,95.81
2023-11-24T04:59:11.523Z,95.77
2023-11-24T05:02:13.916Z,96.44
2023-11-24T05:05:18.498Z,97.06
2023-11-24T05:08:20.818Z,96.59
2023-11-24T05:11:25.632Z,96.83
2023-11-24T05:14:27.904Z,96.91
2023-11-24T05:17:30.356Z,96.39
2023-11-24T05:20:32.744Z,96.70
2023-11-24T05:23:35.250Z,96.52
2023-11-24T05:26:38.769Z,96.57
2023-11-24T05:29:41.021Z,96.53
2023-11-24T05:32:45.577Z,97.21
2023-11-24T05:35:47.839Z,97.03
2023-11-24T05:38:49.986Z,96.63
2023-11-24T05:41:52.220Z,97.19
2023-11-24T05:44:54.529Z,97.23
2023-11-24T05:47:56.710Z,96.61
2023-11-24T05:51:00.560Z,96.69
2023-11-24T05:54:02.972Z,96.49
2023-11-24T05:57:06.078Z,96.22
2023-11-24T06:00:09.801Z,96.17
2023-11-24T06:03:15.079Z,95.73
2023-11-24T06:06:17.383Z,95.59
2023-11-24T06:09:20.002Z,95.47
2023-11-24T06:12:23.248Z,96.96
2023-11-24T06:15:25.711Z,97.92
2023-11-24T06:18:28.103Z,97.39
2023-11-24T06:21:30.727Z,97.71
2023-11-24T06:24:33.109Z,97.55
2023-11-24T06:27:35.564Z,97.29
2023-11-24T06:30:39.996Z,98.14
2023-11-24T06:33:42.607Z,96.41
2023-11-24T06:36:45.199Z,97.11
2023-11-24T06:39:48.141Z,97.32
2023-11-24T06:42:50.516Z,97.01
2023-11-24T06:45:53.060Z,96.63
2023-11-24T06:48:55.444Z,97.10
2023-11-24T06:51:58.044Z,96.08
2023-11-24T06:55:00.549Z,96.48
2023-11-24T06:58:02.950Z,95.77
2023-11-24T07:01:08.500Z,94.87
2023-11-24T07:04:11.075Z,95.58
2023-11-24T07:07:14.139Z,96.09
2023-11-24T07:10:16.543Z,95.28
2023-11-24T07:13:18.908Z,93.06
2023-11-24T07:16:21.379Z,92.40
2023-11-24T07:19:23.980Z,91.62
2023-11-24T07:22:26.345Z,91.09
2023-11-24T07:25:28.638Z,91.18
2023-11-24T07:28:30.949Z,90.46
2023-11-24T07:31:33.287Z,91.02
2023-11-24T07:34:35.643Z,90.50
2023-11-24T07:37:39.923Z,90.30
2023-11-24T07:40:42.308Z,89.67
2023-11-24T07:43:44.654Z,90.14
2023-11-24T07:46:47.019Z,89.54
2023-11-24T07:49:49.378Z,88.76
2023-11-24T07:52:54.510Z,88.64
2023-11-24T07:55:58.008Z,87.06
2023-11-24T07:59:00.429Z,87.25
2023-11-24T08:02:03.997Z,86.31
2023-11-24T08:05:06.611Z,83.53
2023-11-24T08:08:09.272Z,82.28
2023-11-24T08:11:12.191Z,78.91
2023-11-24T08:14:15.426Z,74.44
2023-11-24T08:17:17.827Z,76.65
2023-11-24T08:20:20.368Z,76.82
2023-11-24T08:23:22.686Z,77.94
2023-11-24T08:26:25.110Z,77.62
2023-11-24T08:29:27.758Z,77.82
2023-11-24T08:32:30.106Z,77.26
2023-11-24T08:35:32.499Z,69.88
2023-11-24T08:38:35.140Z,62.17
2023-11-24T08:41:40.658Z,56.72
2023-11-24T08:44:43.297Z,53.59
2023-11-24T08:47:47.821Z,48.41
2023-11-24T08:50:50.184Z,46.30
2023-11-24T08:53:52.477Z,43.38
2023-11-24T08:56:54.827Z,42.63
2023-11-24T08:59:57.094Z,45.46
2023-11-24T09:03:00.994Z,44.03
2023-11-24T09:06:03.861Z,43.65
2023-11-24T09:09:10.079Z,42.41
2023-11-24T09:12:13.851Z,38.37
2023-11-24T09:15:16.279Z,37.85
2023-11-24T09:18:18.681Z,39.18
2023-11-24T09:21:21.870Z,38.85
2023-11-24T09:24:24.368Z,37.82
2023-11-24T09:27:28.151Z,38.75
2023-11-24T09:30:40.748Z,38.64
2023-11-24T09:33:43.413Z,39.47
2023-11-24T09:36:47.427Z,39.26
2023-11-24T09:39:50.071Z,41.71
2023-11-24T09:42:52.741Z,39.06
2023-11-24T09:45:57.287Z,36.37
2023-11-24T09:49:00.095Z,37.78
2023-11-24T09:52:03.475Z,43.64
2023-11-24T09:55:06.457Z,45.06
2023-11-24T09:58:08.834Z,44.85
2023-11-24T10:01:28.257Z,46.66
2023-11-24T10:04:30.823Z,48.83
2023-11-24T10:07:35.385Z,51.05
2023-11-24T10:10:38.100Z,53.07
2023-11-24T10:13:45.407Z,53.57
2023-11-24T10:16:49.770Z,53.24
2023-11-24T10:19:54.965Z,52.46
2023-11-24T10:22:59.644Z,52.26
2023-11-24T10:26:02.652Z,53.03
2023-11-24T10:29:04.970Z,54.82
2023-11-24T10:32:07.811Z,56.86
2023-11-24T10:35:12.980Z,56.99
2023-11-24T10:38:21.501Z,57.86
2023-11-24T10:41:25.239Z,58.33
2023-11-24T10:44:27.608Z,58.29
2023-11-24T10:47:58.350Z,59.38
2023-11-24T10:51:05.904Z,59.75
2023-11-24T10:54:09.094Z,60.55
2023-11-24T10:57:12.404Z,61.65
2023-11-24T11:00:21.748Z,59.98
2023-11-24T11:03:24.120Z,52.73
2023-11-24T11:06:26.851Z,45.35
2023-11-24T11:10:05.225Z,44.39
2023-11-24T11:13:07.684Z,52.68
2023-11-24T11:16:13.696Z,56.98
2023-11-24T11:19:34.607Z,59.10
2023-11-24T11:22:38.051Z,60.13
2023-11-24T11:25:43.601Z,61.98
2023-11-24T11:28:47.981Z,61.89
2023-11-24T11:31:55.064Z,61.84
2023-11-24T11:34:57.584Z,61.92
2023-11-24T11:38:04.250Z,62.32
2023-11-24T11:41:06.557Z,62.07
2023-11-24T11:44:37.721Z,60.81
2023-11-24T11:47:50.940Z,62.47
2023-11-24T11:51:01.759Z,63.06
2023-11-24T11:54:06.297Z,62.65
2023-11-24T11:57:09.003Z,49.54
2023-11-24T12:00:11.831Z,38.74
2023-11-24T12:03:14.376Z,37.30
2023-11-24T12:06:16.882Z,32.57
2023-11-24T12:09:20.764Z,39.58
2023-11-24T12:12:24.426Z,39.26
2023-11-24T12:15:26.769Z,30.88
2023-11-24T12:18:29.446Z,27.05
2023-11-24T12:21:32.752Z,40.95
2023-11-24T12:24:37.503Z,47.76
2023-11-24T12:27:46.047Z,36.71
2023-11-24T12:30:49.416Z,45.74
2023-11-24T12:33:53.174Z,49.57
2023-11-24T12:36:56.239Z,51.47
2023-11-24T12:39:58.782Z,53.28
2023-11-24T12:43:02.018Z,54.44
2023-11-24T12:46:04.788Z,57.09
2023-11-24T12:49:10.438Z,56.70
2023-11-24T12:55:16.329Z,57.35
2023-11-24T12:58:18.680Z,57.11
2023-11-24T13:01:21.024Z,57.41
2023-11-24T13:04:24.987Z,57.70
2023-11-24T13:07:27.586Z,58.28
2023-11-24T13:10:40.289Z,59.28
2023-11-24T13:13:46.207Z,59.99
2023-11-24T13:16:49.780Z,60.11
2023-11-24T13:19:53.530Z,60.74
2023-11-24T13:22:55.954Z,62.73
2023-11-24T13:25:58.222Z,61.85
2023-11-24T13:29:00.639Z,62.15
2023-11-24T13:32:04.183Z,62.71
2023-11-24T13:35:06.899Z,62.48
2023-11-24T13:38:10.840Z,62.74
2023-11-24T13:41:13.383Z,62.38
2023-11-24T13:44:15.736Z,64.87
2023-11-24T13:47:18.632Z,63.78
2023-11-24T13:50:21.652Z,65.07
2023-11-24T13:53:23.987Z,65.59
2023-11-24T13:56:26.265Z,65.12
2023-11-24T13:59:30.389Z,66.22
2023-11-24T14:02:32.833Z,66.92
2023-11-24T14:05:35.372Z,67.51
2023-11-24T14:08:39.382Z,67.85
2023-11-24T14:11:41.707Z,68.37
2023-11-24T14:14:44.469Z,68.69
2023-11-24T14:17:46.945Z,67.76
2023-11-24T14:20:52.151Z,68.05
2023-11-24T14:23:54.480Z,69.21
2023-11-24T14:26:57.634Z,70.30
2023-11-24T14:29:59.921Z,70.68
2023-11-24T14:33:02.634Z,71.60
2023-11-24T14:36:08.129Z,71.71
2023-11-24T14:39:32.905Z,70.51
2023-11-24T14:42:35.328Z,71.06
2023-11-24T14:45:39.095Z,71.43
2023-11-24T14:48:42.500Z,72.70
2023-11-24T14:51:46.279Z,72.73
2023-11-24T14:54:52.888Z,72.82
2023-11-24T14:57:57.242Z,72.91
2023-11-24T15:01:02.651Z,73.89
2023-11-24T15:04:05.739Z,74.06
2023-11-24T15:07:09.841Z,74.14
2023-11-24T15:10:12.798Z,73.50
2023-11-24T15:13:22.568Z,73.53
2023-11-24T15:16:30.124Z,74.33
2023-11-24T15:19:36.112Z,73.52
2023-11-24T15:22:38.900Z,73.89
2023-11-24T15:25:54.632Z,74.00
2023-11-24T15:28:57.426Z,73.37
2023-11-24T15:31:59.864Z,72.61
2023-11-24T15:35:02.912Z,72.76
2023-11-24T15:38:05.322Z,70.60
2023-11-24T15:41:07.971Z,70.91
2023-11-24T15:44:10.392Z,70.05
2023-11-24T15:47:12.756Z,70.96
2023-11-24T15:50:15.931Z,71.64
2023-11-24T15:53:23.231Z,72.33
2023-11-24T15:56:32.603Z,74.86
2023-11-24T15:59:42.057Z,78.61
2023-11-24T16:02:44.576Z,80.33
2023-11-24T16:05:52.976Z,81.94
2023-11-24T16:08:56.664Z,80.71
2023-11-24T16:12:05.854Z,82.01
2023-11-24T16:15:16.970Z,82.50
2023-11-24T16:18:23.248Z,83.31
2023-11-24T16:21:32.181Z,83.62
2023-11-24T16:24:34.697Z,83.78
2023-11-24T16:27:41.377Z,84.80
2023-11-24T16:30:51.106Z,85.08
2023-11-24T16:33:56.476Z,84.72
2023-11-24T16:36:59.093Z,84.83
2023-11-24T16:40:01.977Z,84.43
2023-11-24T16:43:04.564Z,85.48
2023-11-24T16:46:08.555Z,84.90
2023-11-24T16:49:12.087Z,86.09
2023-11-24T16:52:15.345Z,85.52
2023-11-24T16:55:18.239Z,86.11
2023-11-24T16:58:20.745Z,85.96
2023-11-24T17:01:23.755Z,86.39
2023-11-24T17:04:30.921Z,86.22
2023-11-24T17:07:33.288Z,85.23
2023-11-24T17:10:46.992Z,85.48
2023-11-24T17:13:49.585Z,85.50
2023-11-24T17:16:52.485Z,85.65
2023-11-24T17:19:55.520Z,86.42
2023-11-24T17:22:57.882Z,87.42
2023-11-24T17:26:01.077Z,86.90
2023-11-24T17:29:03.709Z,86.88
2023-11-24T17:32:06.561Z,86.87
2023-11-24T17:35:13.656Z,87.40
2023-11-24T17:38:19.574Z,87.31
2023-11-24T17:41:25.102Z,87.89
2023-11-24T17:44:27.472Z,87.20
2023-11-24T17:47:31.289Z,87.25
2023-11-24T17:50:33.738Z,86.88
2023-11-24T17:53:36.869Z,87.86
2023-11-24T17:56:39.474Z,88.72
2023-11-24T17:59:41.814Z,88.43
2023-11-24T18:02:44.914Z,88.57
2023-11-24T18:05:47.305Z,90.22
2023-11-24T18:08:49.705Z,90.18
2023-11-24T18:11:52.091Z,89.91
2023-11-24T18:14:55.768Z,89.46
2023-11-24T18:17:58.346Z,89.13
2023-11-24T18:21:00.799Z,89.81
2023-11-24T18:24:03.437Z,89.91
2023-11-24T18:27:06.482Z,91.30
2023-11-24T18:30:10.993Z,91.05
2023-11-24T18:33:13.956Z,91.15
2023-11-24T18:36:17.435Z,91.38
2023-11-24T18:39:20.428Z,92.11
2023-11-24T18:42:24.154Z,91.46
2023-11-24T18:45:26.627Z,91.12
2023-11-24T18:48:29.753Z,90.55
2023-11-24T18:51:33.280Z,90.21
2023-11-24T18:54:35.645Z,91.20
2023-11-24T18:57:38.183Z,90.61
2023-11-24T19:00:40.772Z,90.69
2023-11-24T19:03:43.126Z,90.55
2023-11-24T19:06:46.470Z,90.62
2023-11-24T19:09:55.239Z,91.16
2023-11-24T19:12:57.756Z,90.16
2023-11-24T19:16:02.074Z,90.03
2023-11-24T19:19:04.554Z,90.20
2023-11-24T19:22:09.019Z,89.50
2023-11-24T19:25:13.893Z,90.63
2023-11-24T19:28:19.917Z,90.73
2023-11-24T19:31:22.508Z,91.57
2023-11-24T19:34:30.506Z,91.06
2023-11-24T19:37:33.558Z,91.97
2023-11-24T19:40:41.352Z,91.83
2023-11-24T19:43:44.920Z,92.63
2023-11-24T19:46:50.086Z,92.52
2023-11-24T19:49:53.475Z,93.31
2023-11-24T19:52:56.260Z,92.70
2023-11-24T19:55:59.124Z,91.89
2023-11-24T19:59:02.917Z,92.58
2023-11-24T20:02:06.212Z,92.41
2023-11-24T20:05:11.861Z,92.75
2023-11-24T20:08:14.199Z,92.96
2023-11-24T20:11:17.381Z,92.53
2023-11-24T20:14:19.885Z,92.22
2023-11-24T20:17:22.356Z,92.82
2023-11-24T20:20:24.729Z,92.43
2023-11-24T20:23:28.920Z,93.07
2023-11-24T20:26:31.339Z,92.56
2023-11-24T20:29:33.705Z,92.69
2023-11-24T20:32:36.206Z,93.07
2023-11-24T20:35:38.709Z,92.94
2023-11-24T20:38:41.217Z,91.86
2023-11-24T20:41:43.672Z,92.34
2023-11-24T20:44:46.833Z,91.68
2023-11-24T20:47:52.882Z,92.56
2023-11-24T20:50:55.467Z,92.89
2023-11-24T20:53:57.831Z,93.69
2023-11-24T20:57:00.931Z,93.85
2023-11-24T21:00:05.230Z,93.74
2023-11-24T21:03:09.150Z,93.70
2023-11-24T21:06:13.907Z,92.38
2023-11-24T21:09:16.526Z,91.48
2023-11-24T21:12:19.098Z,91.63
2023-11-24T21:15:21.475Z,90.81
2023-11-24T21:18:28.472Z,89.94
2023-11-24T21:21:31.558Z,90.51
2023-11-24T21:24:34.167Z,90.75
2023-11-24T21:27:36.845Z,88.31
2023-11-24T21:30:44.534Z,89.31
2023-11-24T21:33:48.473Z,91.68
2023-11-24T21:36:50.950Z,90.61
2023-11-24T21:40:01.661Z,91.13
2023-11-24T21:43:04.239Z,92.74
2023-11-24T21:46:06.917Z,92.34
2023-11-24T21:49:09.557Z,92.69
2023-11-24T21:52:12.110Z,93.91
2023-11-24T21:55:14.837Z,93.59
2023-11-24T21:58:18.803Z,94.55
2023-11-24T22:01:22.252Z,94.94
2023-11-24T22:04:24.898Z,94.66
2023-11-24T22:07:27.344Z,94.51
2023-11-24T22:10:32.215Z,94.77
2023-11-24T22:13:34.841Z,94.57
2023-11-24T22:16:37.480Z,95.80
2023-11-24T22:19:40.271Z,94.91
2023-11-24T22:22:42.807Z,95.55
2023-11-24T22:25:45.229Z,95.77
2023-11-24T22:28:47.536Z,95.65
2023-11-24T22:31:50.057Z,96.74
2023-11-24T22:34:52.382Z,95.95
2023-11-24T22:37:54.879Z,95.51
2023-11-24T22:40:57.231Z,95.59
2023-11-24T22:43:59.597Z,95.55
2023-11-24T22:47:02.136Z,95.06
2023-11-24T22:50:07.568Z,94.64
2023-11-24T22:53:09.959Z,93.71
2023-11-24T22:56:26.664Z,93.04
2023-11-24T22:59:29.362Z,92.33
2023-11-24T23:02:31.967Z,92.77
2023-11-24T23:05:39.008Z,92.14
2023-11-24T23:08:41.402Z,91.57
2023-11-24T23:11:43.731Z,91.88
2023-11-24T23:14:46.259Z,91.34
2023-11-24T23:17:49.451Z,91.59
2023-11-24T23:20:52.414Z,91.20
2023-11-24T23:23:56.470Z,92.27
2023-11-24T23:26:58.961Z,92.19
2023-11-24T23:30:01.351Z,92.92
2023-11-24T23:33:13.050Z,91.72
2023-11-24T23:36:20.280Z,92.29
2023-11-24T23:39:22.475Z,92.58
2023-11-24T23:42:28.164Z,93.19
2023-11-24T23:45:33.578Z,91.67
2023-11-24T23:48:36.226Z,92.53
2023-11-24T23:51:38.520Z,91.53
2023-11-24T23:54:40.940Z,88.35
2023-11-24T23:57:43.346Z,89.10
